createdAt,value
2023-01-13T00:00:34.230Z,80.82
2023-01-13T00:05:37.476Z,80.54
2023-01-13T00:10:42.573Z,80.44
2023-01-13T00:15:45.211Z,80.43
2023-01-13T00:20:47.756Z,79.87
2023-01-13T00:25:51.063Z,79.63
2023-01-13T00:31:12.870Z,79.25
2023-01-13T00:36:20.609Z,78.72
2023-01-13T00:41:24.868Z,78.25
2023-01-13T00:46:27.028Z,78.03
2023-01-13T00:51:37.244Z,78.08
2023-01-13T00:56:43.031Z,77.80
2023-01-13T01:01:48.964Z,78.14
2023-01-13T01:06:51.999Z,78.61
2023-01-13T01:12:15.039Z,78.14
2023-01-13T01:17:22.938Z,78.47
2023-01-13T01:22:41.706Z,78.41
2023-01-13T01:27:49.704Z,78.01
2023-01-13T01:33:05.370Z,78.88
2023-01-13T01:38:13.523Z,77.79
2023-01-13T01:44:07.277Z,77.89
2023-01-13T01:49:32.530Z,76.91
2023-01-13T01:54:44.311Z,77.22
2023-01-13T02:00:02.534Z,77.59
2023-01-13T02:05:26.695Z,77.13
2023-01-13T02:10:32.364Z,77.02
2023-01-13T02:15:55.528Z,76.71
2023-01-13T02:21:48.269Z,77.16
2023-01-13T02:27:12.312Z,76.72
2023-01-13T02:32:38.449Z,77.56
2023-01-13T02:37:45.089Z,76.86
2023-01-13T02:43:52.679Z,77.42
2023-01-13T02:49:04.510Z,76.64
2023-01-13T02:54:14.837Z,76.00
2023-01-13T02:59:19.586Z,76.02
2023-01-13T03:04:57.721Z,75.63
2023-01-13T03:10:51.442Z,75.71
2023-01-13T03:16:18.178Z,75.49
2023-01-13T03:21:29.452Z,75.93
2023-01-13T03:26:41.338Z,75.63
2023-01-13T03:32:28.112Z,75.73
2023-01-13T03:37:44.171Z,75.53
2023-01-13T03:43:24.911Z,75.20
2023-01-13T03:48:32.720Z,75.89
2023-01-13T03:53:52.836Z,75.56
2023-01-13T03:59:05.177Z,75.40
2023-01-13T04:04:16.912Z,75.33
2023-01-13T04:09:56.765Z,75.14
2023-01-13T04:14:59.228Z,74.95
2023-01-13T04:20:01.491Z,74.63
2023-01-13T04:25:04.619Z,74.30
2023-01-13T04:30:08.587Z,74.18
2023-01-13T04:35:14.019Z,74.59
2023-01-13T04:40:23.821Z,73.77
2023-01-13T04:45:29.482Z,73.73
2023-01-13T04:50:35.770Z,73.91
2023-01-13T04:55:44.533Z,73.48
2023-01-13T05:00:50.774Z,73.28
2023-01-13T05:05:52.959Z,72.99
2023-01-13T05:10:55.831Z,73.50
2023-01-13T05:16:20.144Z,73.47
2023-01-13T05:21:44.551Z,73.40
2023-01-13T05:26:47.000Z,73.36
2023-01-13T05:31:49.439Z,73.31
2023-01-13T05:36:52.130Z,73.59
2023-01-13T05:42:13.960Z,73.62
2023-01-13T05:47:19.031Z,73.65
2023-01-13T05:52:24.556Z,73.40
2023-01-13T05:57:27.189Z,73.18
2023-01-13T06:02:35.136Z,72.83
2023-01-13T06:07:44.048Z,72.70
2023-01-13T06:12:46.508Z,72.77
2023-01-13T06:17:51.242Z,72.73
2023-01-13T06:23:00.621Z,72.57
2023-01-13T06:28:05.625Z,72.90
2023-01-13T06:33:13.822Z,73.00
2023-01-13T06:38:22.751Z,72.75
2023-01-13T06:43:25.231Z,73.01
2023-01-13T06:48:33.198Z,72.58
2023-01-13T06:53:38.127Z,72.84
2023-01-13T06:58:40.836Z,73.31
2023-01-13T07:03:43.459Z,73.07
2023-01-13T07:08:45.649Z,73.09
2023-01-13T07:14:10.314Z,73.28
2023-01-13T07:19:13.139Z,73.32
2023-01-13T07:24:15.857Z,73.17
2023-01-13T07:29:18.697Z,72.99
2023-01-13T07:34:21.450Z,73.23
2023-01-13T07:39:24.252Z,73.11
2023-01-13T07:44:29.648Z,72.91
2023-01-13T07:49:35.642Z,72.46
2023-01-13T07:54:41.076Z,72.68
2023-01-13T07:59:46.755Z,72.34
2023-01-13T08:04:58.006Z,72.37
2023-01-13T08:10:08.321Z,72.14
2023-01-13T08:15:21.637Z,72.08
2023-01-13T08:20:30.216Z,71.73
2023-01-13T08:25:35.628Z,71.61
2023-01-13T08:30:47.735Z,71.34
2023-01-13T08:35:54.597Z,71.48
2023-01-13T08:40:57.357Z,71.29
2023-01-13T08:46:04.907Z,71.31
2023-01-13T08:51:09.445Z,71.29
2023-01-13T08:56:14.639Z,71.16
2023-01-13T09:01:21.719Z,70.68
2023-01-13T09:06:28.840Z,70.50
2023-01-13T09:11:56.064Z,70.68
2023-01-13T09:16:59.229Z,70.81
2023-01-13T09:22:06.946Z,70.67
2023-01-13T09:27:28.497Z,70.07
2023-01-13T09:32:34.264Z,69.79
2023-01-13T09:37:42.031Z,69.25
2023-01-13T09:43:49.728Z,67.61
2023-01-13T09:48:52.635Z,67.50
2023-01-13T09:54:00.250Z,66.58
2023-01-13T09:59:03.280Z,66.16
2023-01-13T10:04:14.249Z,65.56
2023-01-13T10:09:26.244Z,65.62
2023-01-13T10:14:37.855Z,65.52
2023-01-13T10:20:11.286Z,65.53
2023-01-13T10:25:38.894Z,65.14
2023-01-13T10:30:48.863Z,65.03
2023-01-13T10:36:01.287Z,64.78
2023-01-13T10:41:20.417Z,64.24
2023-01-13T10:46:24.457Z,64.31
2023-01-13T10:51:30.152Z,64.67
2023-01-13T10:56:37.743Z,63.85
2023-01-13T11:02:01.186Z,63.85
2023-01-13T11:07:18.848Z,63.71
2023-01-13T11:12:37.171Z,63.84
2023-01-13T11:18:00.581Z,63.51
2023-01-13T11:23:14.245Z,63.61
2023-01-13T11:28:56.247Z,64.26
2023-01-13T11:34:16.464Z,63.97
2023-01-13T11:39:44.712Z,64.01
2023-01-13T11:44:56.585Z,64.21
2023-01-13T11:50:00.355Z,64.14
2023-01-13T11:55:49.834Z,64.22
2023-01-13T12:00:58.162Z,64.30
2023-01-13T12:06:38.390Z,64.44
2023-01-13T12:12:22.947Z,64.62
2023-01-13T12:17:42.768Z,64.63
2023-01-13T12:22:52.234Z,64.70
2023-01-13T12:28:14.239Z,64.73
2023-01-13T12:33:59.182Z,64.46
2023-01-13T12:39:18.570Z,64.81
2023-01-13T12:44:21.403Z,64.54
2023-01-13T12:50:03.011Z,64.65
2023-01-13T12:55:12.684Z,64.75
2023-01-13T13:00:20.174Z,65.21
2023-01-13T13:05:39.773Z,66.03
2023-01-13T13:11:02.238Z,66.32
2023-01-13T13:16:41.652Z,66.47
2023-01-13T13:22:41.044Z,66.43
2023-01-13T13:27:53.308Z,66.49
2023-01-13T13:33:33.705Z,66.68
2023-01-13T13:39:21.221Z,66.65
2023-01-13T13:44:50.643Z,66.75
2023-01-13T13:49:56.253Z,66.88
2023-01-13T13:55:15.840Z,67.17
2023-01-13T14:00:41.297Z,67.32
2023-01-13T14:05:55.972Z,67.31
2023-01-13T14:10:58.191Z,67.39
2023-01-13T14:16:15.222Z,67.52
2023-01-13T14:21:31.000Z,67.75
2023-01-13T14:26:33.636Z,67.84
2023-01-13T14:31:38.487Z,67.85
2023-01-13T14:36:53.989Z,67.73
2023-01-13T14:42:02.476Z,68.15
2023-01-13T14:47:33.166Z,68.67
2023-01-13T14:52:49.385Z,68.95
2023-01-13T14:58:25.285Z,68.96
2023-01-13T15:03:42.773Z,68.85
2023-01-13T15:08:48.280Z,69.03
2023-01-13T15:13:59.187Z,69.05
2023-01-13T15:19:04.291Z,68.99
2023-01-13T15:24:09.367Z,68.90
2023-01-13T15:29:17.148Z,69.02
2023-01-13T15:34:19.586Z,69.21
2023-01-13T15:39:22.189Z,69.26
2023-01-13T15:44:44.162Z,69.59
2023-01-13T15:49:47.251Z,69.68
2023-01-13T15:54:51.586Z,69.93
2023-01-13T16:00:17.674Z,69.98
2023-01-13T16:05:23.480Z,69.85
2023-01-13T16:10:32.398Z,70.08
2023-01-13T16:15:37.344Z,70.33
2023-01-13T16:20:46.019Z,70.59
2023-01-13T16:25:49.349Z,70.56
2023-01-13T16:30:51.930Z,70.79
2023-01-13T16:36:13.688Z,70.77
2023-01-13T16:41:16.539Z,70.83
2023-01-13T16:46:34.474Z,70.93
2023-01-13T16:51:40.390Z,71.08
2023-01-13T16:56:44.535Z,71.28
2023-01-13T17:01:49.223Z,71.23
2023-01-13T17:07:01.902Z,71.40
2023-01-13T17:12:07.195Z,71.51
2023-01-13T17:17:25.598Z,71.28
2023-01-13T17:22:28.304Z,71.23
2023-01-13T17:27:33.405Z,71.41
2023-01-13T17:32:47.157Z,71.45
2023-01-13T17:37:53.370Z,71.57
2023-01-13T17:43:01.476Z,71.80
2023-01-13T17:48:18.025Z,71.69
2023-01-13T17:53:21.582Z,71.98
2023-01-13T17:58:26.950Z,72.35
2023-01-13T18:03:29.495Z,73.06
2023-01-13T18:08:44.642Z,73.75
2023-01-13T18:13:52.295Z,74.46
2023-01-13T18:19:36.631Z,75.58
2023-01-13T18:25:08.745Z,76.45
2023-01-13T18:30:26.623Z,75.88
2023-01-13T18:35:31.978Z,75.91
2023-01-13T18:40:49.957Z,76.40
2023-01-13T18:46:00.716Z,77.20
2023-01-13T18:51:03.556Z,77.32
2023-01-13T18:56:11.589Z,77.62
2023-01-13T19:01:14.189Z,78.04
2023-01-13T19:06:16.885Z,78.47
2023-01-13T19:11:23.630Z,79.24
2023-01-13T19:16:26.103Z,79.74
2023-01-13T19:21:28.495Z,80.02
2023-01-13T19:26:30.745Z,80.36
2023-01-13T19:31:33.499Z,80.64
2023-01-13T19:36:36.218Z,81.42
2023-01-13T19:41:59.209Z,81.98
2023-01-13T19:47:11.387Z,82.02
2023-01-13T19:52:14.543Z,82.45
2023-01-13T19:57:20.363Z,82.30
2023-01-13T20:02:31.593Z,82.30
2023-01-13T20:07:35.429Z,82.41
2023-01-13T20:12:38.584Z,82.65
2023-01-13T20:17:43.545Z,82.43
2023-01-13T20:22:47.656Z,82.52
2023-01-13T20:27:53.153Z,82.49
2023-01-13T20:32:56.056Z,82.53
2023-01-13T20:38:07.216Z,82.55
2023-01-13T20:43:10.972Z,82.54
2023-01-13T20:48:14.512Z,82.66
2023-01-13T20:53:17.387Z,82.74
2023-01-13T20:58:20.159Z,82.82
2023-01-13T21:03:22.945Z,82.78
2023-01-13T21:08:25.348Z,82.79
2023-01-13T21:13:47.858Z,82.78
2023-01-13T21:19:10.868Z,82.83
2023-01-13T21:24:15.797Z,82.75
2023-01-13T21:29:18.319Z,82.82
2023-01-13T21:34:20.720Z,82.82
2023-01-13T21:39:26.027Z,82.72
2023-01-13T21:44:47.159Z,82.66
2023-01-13T21:49:52.278Z,82.61
2023-01-13T21:55:13.984Z,82.50
2023-01-13T22:00:21.281Z,82.27
2023-01-13T22:05:29.288Z,82.49
2023-01-13T22:10:35.196Z,82.54
2023-01-13T22:15:38.310Z,82.60
2023-01-13T22:20:42.131Z,82.76
2023-01-13T22:25:47.020Z,82.90
2023-01-13T22:30:51.185Z,82.50
2023-01-13T22:35:56.689Z,82.55
2023-01-13T22:41:00.506Z,82.47
2023-01-13T22:46:12.333Z,82.31
2023-01-13T22:51:16.353Z,82.33
2023-01-13T22:56:21.914Z,82.49
2023-01-13T23:01:28.233Z,82.42
2023-01-13T23:06:33.857Z,82.56
2023-01-13T23:11:36.744Z,82.61
2023-01-13T23:16:42.059Z,82.52
2023-01-13T23:21:44.805Z,82.48
2023-01-13T23:26:50.601Z,82.41
2023-01-13T23:31:53.292Z,82.32
2023-01-13T23:36:55.540Z,82.39
2023-01-13T23:41:59.532Z,82.14
2023-01-13T23:47:01.977Z,82.20
2023-01-13T23:52:04.650Z,82.12
2023-01-13T23:57:07.442Z,82.20
